Time;durP1;ratioP1;P1;durP2;ratioP2;P2;SDS_P1;SDS_P2;PMS_P1;PMS_P2;Temp;Humidity;BMP_temperature;BMP_pressure;BME280_temperature;BME280_humidity;BME280_pressure;Samples;Min_cycle;Max_cycle;Signal;HPM_P1;HPM_P2
2022/11/11 00:27:11;;;;;;;;;;;;;;;;;;;;;
2022/11/11 03:50:38;;;;;;;15.55;9.23;;;;;;;;;;2881060;23;20304;-96
2022/11/11 03:53:08;;;;;;;18.73;9.85;;;;;;;;;;4980050;28;20054;-96
2022/11/11 03:55:38;;;;;;;14.60;9.35;;;;;;;;;;4981497;28;20037;-96
2022/11/11 03:58:15;;;;;;;18.00;9.77;;;;;;;;;;4999303;28;20042;-96
2022/11/11 04:00:57;;;;;;;14.75;8.80;;;;;;;;;;5170052;23;20060;-96
2022/11/11 04:12:08;;;;;;;23.23;13.52;;;;;;;;;;5071054;28;20047;-95
2022/11/11 04:17:22;;;;;;;18.88;11.65;;;;;;;;;;5110811;23;20031;-96
2022/11/11 04:23:12;;;;;;;30.15;16.48;;;;;;;;;;5019266;28;20525;-95
2022/11/11 04:25:52;;;;;;;19.35;10.55;;;;;;;;;;5019582;28;20030;-95
2022/11/11 04:31:24;;;;;;;18.20;11.15;;;;;;;;;;5019778;28;20115;-96
2022/11/11 04:34:05;;;;;;;17.05;10.60;;;;;;;;;;5020039;28;20041;-96
2022/11/11 04:36:44;;;;;;;;;;;;;;;;;;;;;
2022/11/11 04:42:38;;;;;;;17.95;9.52;;;;;;;;;;5021710;28;20057;-95
2022/11/11 04:45:41;;;;;;;;;;;;;;;;;;;;;
2022/11/11 04:48:27;;;;;;;;;;;;;;;;;;;;;
2022/11/11 04:51:07;;;;;;;;;;;;;;;;;;;;;
2022/11/11 04:53:43;;;;;;;;;;;;;;;;;;;;;
2022/11/11 04:56:54;;;;;;;14.90;7.65;;;;;;;;;;5018662;28;20105;-96
2022/11/11 04:59:26;;;;;;;;;;;;;;;;;;;;;
2022/11/11 05:05:07;;;;;;;34.17;21.77;;;;;;;;;;5019529;28;20537;-95
2022/11/11 05:22:30;;;;;;;35.08;18.10;;;;;;;;;;5061993;28;20052;-96
2022/11/11 05:25:39;;;;;;;;;;;;;;;;;;;;;
2022/11/11 05:28:08;;;;;;;23.48;12.27;;;;;;;;;;5046163;28;20104;-96
2022/11/11 05:30:45;;;;;;;;;;;;;;;;;;;;;
2022/11/11 05:33:23;;;;;;;26.27;13.63;;;;;;;;;;5057901;28;20113;-96
2022/11/11 05:39:07;;;;;;;29.85;15.02;;;;;;;;;;5054140;28;20021;-96
2022/11/11 05:41:36;;;;;;;34.75;18.02;;;;;;;;;;5038770;28;20040;-96
2022/11/11 05:44:12;;;;;;;43.67;22.70;;;;;;;;;;5037796;28;20025;-95
2022/11/11 05:46:42;;;;;;;23.77;13.27;;;;;;;;;;5041042;28;20025;-96
2022/11/11 05:49:37;;;;;;;21.48;11.70;;;;;;;;;;5042325;28;20504;-96
2022/11/11 05:52:17;;;;;;;;;;;;;;;;;;;;;
2022/11/11 05:54:47;;;;;;;26.60;14.45;;;;;;;;;;5056587;28;20124;-95
2022/11/11 05:57:17;;;;;;;29.17;17.15;;;;;;;;;;5041986;28;20035;-96
2022/11/11 05:59:49;;;;;;;34.67;19.02;;;;;;;;;;5041150;28;20025;-96
2022/11/11 06:02:20;;;;;;;23.48;13.38;;;;;;;;;;5043515;28;20041;-96
2022/11/11 06:04:54;;;;;;;25.90;14.88;;;;;;;;;;5043531;28;20489;-96
2022/11/11 06:07:33;;;;;;;;;;;;;;;;;;;;;
2022/11/11 06:10:31;;;;;;;52.20;27.77;;;;;;;;;;5064936;28;20045;-96
2022/11/11 06:13:04;;;;;;;43.97;23.35;;;;;;;;;;5060459;28;20423;-96
2022/11/11 06:15:38;;;;;;;39.78;22.38;;;;;;;;;;5060742;28;20051;-96
2022/11/11 06:18:13;;;;;;;31.15;18.92;;;;;;;;;;5061485;28;20025;-94
2022/11/11 06:20:44;;;;;;;27.70;15.38;;;;;;;;;;5076381;28;20120;-95
2022/11/11 06:23:21;;;;;;;23.15;14.32;;;;;;;;;;5132837;22;20031;-95
2022/11/11 06:41:23;;;;;;;23.70;15.82;;;;;;;;;;4943536;29;20036;-93
2022/11/11 06:44:34;;;;;;;24.53;16.07;;;;;;;;;;4940658;29;20032;-93
2022/11/11 06:50:14;;;;;;;22.08;15.90;;;;;;;;;;4934357;29;20039;-95
2022/11/11 07:01:30;;;;;;;17.20;13.40;;;;;;;;;;5671338;22;20052;-94
2022/11/11 07:04:19;;;;;;;15.95;13.35;;;;;;;;;;5040294;28;20043;-94
2022/11/11 07:06:45;;;;;;;17.00;12.40;;;;;;;;;;5024055;28;20048;-92
2022/11/11 07:09:11;;;;;;;17.75;13.38;;;;;;;;;;5038224;28;20028;-94
2022/11/11 07:11:37;;;;;;;17.23;12.77;;;;;;;;;;5038344;28;20052;-94
2022/11/11 07:14:03;;;;;;;15.05;12.70;;;;;;;;;;5054498;28;20076;-92
2022/11/11 07:16:29;;;;;;;18.25;12.90;;;;;;;;;;5051755;28;20031;-92
2022/11/11 07:18:56;;;;;;;17.25;13.27;;;;;;;;;;5038115;28;20139;-92
2022/11/11 07:21:22;;;;;;;15.10;11.95;;;;;;;;;;5047147;28;20036;-92
2022/11/11 07:24:18;;;;;;;16.20;11.25;;;;;;;;;;5054846;28;20052;-96
2022/11/11 07:26:44;;;;;;;15.70;12.52;;;;;;;;;;5014828;28;20053;-95
2022/11/11 07:29:19;;;;;;;16.63;11.70;;;;;;;;;;5035978;28;20025;-95
2022/11/11 07:32:09;;;;;;;16.27;11.18;;;;;;;;;;5061719;28;20028;-95
2022/11/11 07:43:29;;;;;;;8.93;6.20;;;;;;;;;;5058174;28;20068;-95
2022/11/11 07:46:01;;;;;;;12.48;7.15;;;;;;;;;;5044159;28;20029;-92
2022/11/11 07:48:27;;;;;;;11.30;7.60;;;;;;;;;;5038026;28;20028;-95
2022/11/11 07:50:53;;;;;;;12.05;7.82;;;;;;;;;;5053851;28;20028;-95
2022/11/11 07:53:24;;;;;;;11.35;8.15;;;;;;;;;;5047906;28;20044;-94
2022/11/11 07:55:51;;;;;;;9.48;6.97;;;;;;;;;;5037949;28;20029;-96
2022/11/11 07:58:20;;;;;;;9.98;7.25;;;;;;;;;;5050289;28;20438;-96
2022/11/11 15:41:22;;;;;;;41.13;27.05;;;;;;;;;;5358239;22;20136;-92
2022/11/11 15:43:48;;;;;;;38.25;25.63;;;;;;;;;;5017538;28;20040;-93
2022/11/11 15:49:42;;;;;;;36.33;20.92;;;;;;;;;;5104310;23;20183;-93
2022/11/11 15:52:24;;;;;;;27.50;19.08;;;;;;;;;;5057179;28;20460;-92
2022/11/11 15:54:54;;;;;;;25.38;17.40;;;;;;;;;;5057278;28;20092;-91
2022/11/11 15:57:27;;;;;;;32.70;19.15;;;;;;;;;;5057130;28;20088;-91
2022/11/11 15:59:54;;;;;;;;;;;;;;;;;;5057424;28;20559;-90
2022/11/11 16:02:24;;;;;;;33.83;20.35;;;;;;;;;;5057176;28;19912;-89
2022/11/11 16:05:17;;;;;;;40.28;26.10;;;;;;;;;;5057123;28;20481;-94
2022/11/11 16:07:43;;;;;;;31.65;21.15;;;;;;;;;;5052478;28;20484;-92
2022/11/11 16:10:27;;;;;;;33.08;20.17;;;;;;;;;;5057063;28;20111;-95
2022/11/11 16:13:12;;;;;;;39.50;23.13;;;;;;;;;;5063845;28;20036;-94
2022/11/11 16:15:43;;;;;;;35.42;21.15;;;;;;;;;;5088298;28;20043;-94
2022/11/11 16:18:15;;;;;;;29.67;19.80;;;;;;;;;;5061075;28;20044;-93
2022/11/11 16:20:44;;;;;;;36.28;21.92;;;;;;;;;;5059151;28;20047;-94
2022/11/11 16:23:23;;;;;;;36.95;23.05;;;;;;;;;;5059606;28;20044;-94
2022/11/11 16:26:03;;;;;;;38.75;23.20;;;;;;;;;;5076215;28;20029;-94
2022/11/11 16:28:36;;;;;;;37.28;24.48;;;;;;;;;;5059785;28;20024;-94
2022/11/11 16:31:23;;;;;;;33.80;20.90;;;;;;;;;;5058917;28;20024;-92
2022/11/11 16:33:51;;;;;;;45.95;25.30;;;;;;;;;;5046526;28;20121;-91
2022/11/11 16:36:17;;;;;;;41.92;24.38;;;;;;;;;;5055962;28;20116;-91
2022/11/11 16:38:44;;;;;;;48.65;26.67;;;;;;;;;;5057466;28;20510;-93
2022/11/11 16:41:27;;;;;;;47.83;27.42;;;;;;;;;;5074980;28;20025;-93
2022/11/11 16:43:58;;;;;;;66.53;34.22;;;;;;;;;;5056879;28;20045;-93
2022/11/11 16:46:37;;;;;;;54.20;29.50;;;;;;;;;;5057901;28;20523;-96
2022/11/11 16:49:32;;;;;;;58.30;31.95;;;;;;;;;;5057858;28;20048;-92
2022/11/11 16:52:28;;;;;;;68.93;37.92;;;;;;;;;;5056784;28;20040;-92
2022/11/11 16:54:56;;;;;;;65.13;36.70;;;;;;;;;;5046038;28;20068;-92
2022/11/11 16:57:25;;;;;;;51.72;30.67;;;;;;;;;;5056542;28;20425;-93
2022/11/11 16:59:54;;;;;;;51.72;29.13;;;;;;;;;;5066838;28;20028;-94
2022/11/11 17:02:24;;;;;;;59.78;32.38;;;;;;;;;;5074752;28;20029;-96
2022/11/11 17:04:54;;;;;;;49.03;27.38;;;;;;;;;;5061910;28;20028;-95
2022/11/11 17:07:34;;;;;;;53.63;31.15;;;;;;;;;;5057882;28;20024;-92
2022/11/11 17:10:13;;;;;;;41.00;23.85;;;;;;;;;;5057242;28;20120;-94
2022/11/11 17:12:39;;;;;;;71.93;36.28;;;;;;;;;;5056473;28;20116;-91
2022/11/11 17:15:10;;;;;;;42.00;25.00;;;;;;;;;;5056831;28;20446;-92
2022/11/11 17:17:37;;;;;;;57.00;31.25;;;;;;;;;;5055931;28;20035;-93
2022/11/11 17:20:07;;;;;;;73.85;38.10;;;;;;;;;;5055728;28;20025;-91
2022/11/11 17:22:33;;;;;;;58.28;33.20;;;;;;;;;;5056052;28;20036;-92
2022/11/11 17:24:59;;;;;;;70.00;34.00;;;;;;;;;;5055636;28;20111;-92
2022/11/11 17:27:29;;;;;;;48.47;29.52;;;;;;;;;;5055890;28;20037;-93
2022/11/11 17:29:55;;;;;;;66.22;35.30;;;;;;;;;;5056050;28;20108;-92
2022/11/11 17:32:22;;;;;;;88.50;43.50;;;;;;;;;;5055781;28;20039;-94
2022/11/11 17:34:48;;;;;;;58.75;31.13;;;;;;;;;;5056054;28;20383;-96
2022/11/11 17:37:15;;;;;;;72.35;37.45;;;;;;;;;;5055510;28;20492;-91
2022/11/11 17:39:43;;;;;;;71.55;39.35;;;;;;;;;;5055444;28;20040;-92
2022/11/11 17:42:10;;;;;;;58.65;33.13;;;;;;;;;;5055622;28;20495;-92
2022/11/11 17:44:36;;;;;;;62.10;33.92;;;;;;;;;;5056044;28;20060;-91
2022/11/11 17:47:02;;;;;;;57.90;33.25;;;;;;;;;;5055907;28;20082;-93
2022/11/11 17:52:20;;;;;;;46.63;27.83;;;;;;;;;;5565985;22;20522;-94
2022/11/11 17:54:50;;;;;;;47.83;27.77;;;;;;;;;;5077036;28;20060;-96
2022/11/11 17:57:16;;;;;;;39.88;24.77;;;;;;;;;;5061594;28;20057;-94
2022/11/11 17:59:42;;;;;;;40.30;24.35;;;;;;;;;;5061119;28;20016;-94
2022/11/11 18:02:19;;;;;;;46.13;27.45;;;;;;;;;;5065161;28;20484;-95
2022/11/11 18:04:45;;;;;;;46.00;27.00;;;;;;;;;;5061123;28;20469;-95
2022/11/11 18:07:11;;;;;;;67.60;36.92;;;;;;;;;;5059412;28;20033;-93
2022/11/11 18:12:23;;;;;;;114.95;61.20;;;;;;;;;;4998559;28;20031;-94
2022/11/11 18:15:22;;;;;;;89.88;52.15;;;;;;;;;;5049907;28;20055;-96
2022/11/11 18:17:53;;;;;;;92.97;52.00;;;;;;;;;;5064459;28;20060;-93
2022/11/11 18:20:19;;;;;;;80.82;47.83;;;;;;;;;;5062451;28;20021;-93
2022/11/11 18:22:45;;;;;;;110.40;63.30;;;;;;;;;;5065646;28;20036;-94
2022/11/11 18:25:12;;;;;;;146.27;79.35;;;;;;;;;;5064702;28;20033;-93
2022/11/11 18:27:44;;;;;;;108.53;58.97;;;;;;;;;;5075545;28;20043;-95
2022/11/11 18:30:10;;;;;;;100.28;54.25;;;;;;;;;;5060072;28;20028;-94
2022/11/11 18:32:36;;;;;;;99.43;55.88;;;;;;;;;;5061036;28;20025;-95
2022/11/11 18:35:03;;;;;;;98.82;54.28;;;;;;;;;;5060880;28;20025;-95
2022/11/11 18:37:29;;;;;;;118.03;69.40;;;;;;;;;;5068912;28;20035;-93
2022/11/11 18:40:05;;;;;;;116.68;64.97;;;;;;;;;;5094071;28;20029;-94
2022/11/11 18:42:37;;;;;;;100.53;57.28;;;;;;;;;;5066016;28;20082;-95
2022/11/11 18:45:04;;;;;;;108.93;61.35;;;;;;;;;;5064269;28;20051;-96
2022/11/11 18:47:30;;;;;;;116.55;66.88;;;;;;;;;;5060122;28;20033;-95
2022/11/11 18:49:56;;;;;;;94.25;57.30;;;;;;;;;;5061923;28;20471;-95
2022/11/11 18:52:22;;;;;;;121.28;64.50;;;;;;;;;;5058142;28;20053;-96
2022/11/11 18:54:48;;;;;;;95.47;58.38;;;;;;;;;;5058443;28;20027;-96
2022/11/11 18:57:14;;;;;;;91.40;54.25;;;;;;;;;;5057802;28;20020;-95
2022/11/11 19:00:07;;;;;;;95.60;53.55;;;;;;;;;;5056141;28;20458;-96
2022/11/11 19:02:33;;;;;;;104.63;56.72;;;;;;;;;;5056512;28;20068;-95
2022/11/11 19:04:59;;;;;;;100.20;56.85;;;;;;;;;;5055538;28;20024;-96
2022/11/11 19:07:25;;;;;;;86.25;51.13;;;;;;;;;;5055711;28;20369;-95
2022/11/11 19:09:51;;;;;;;80.68;47.42;;;;;;;;;;5055747;28;20049;-96
2022/11/11 19:12:17;;;;;;;79.72;46.45;;;;;;;;;;5054515;28;20448;-96
2022/11/11 19:14:43;;;;;;;89.65;50.83;;;;;;;;;;5056007;28;20079;-95
2022/11/11 19:17:10;;;;;;;100.00;51.75;;;;;;;;;;5045990;28;20029;-94
2022/11/11 19:19:36;;;;;;;97.85;53.92;;;;;;;;;;5036171;28;20026;-92
2022/11/11 19:22:06;;;;;;;84.35;48.10;;;;;;;;;;5037675;28;20026;-95
2022/11/11 19:24:33;;;;;;;86.90;45.65;;;;;;;;;;5036026;28;20037;-92
2022/11/11 19:26:59;;;;;;;82.18;45.83;;;;;;;;;;5034850;28;20084;-93
2022/11/11 19:29:25;;;;;;;82.30;45.33;;;;;;;;;;5039066;28;20478;-93
2022/11/11 19:37:46;;;;;;;75.45;42.50;;;;;;;;;;5001657;28;20093;-93
2022/11/11 19:40:12;;;;;;;72.65;39.65;;;;;;;;;;5024114;28;20057;-94
2022/11/11 19:42:39;;;;;;;102.25;51.95;;;;;;;;;;5041104;28;20047;-94
2022/11/11 19:45:05;;;;;;;82.65;46.35;;;;;;;;;;5054454;28;20027;-95
2022/11/11 19:47:31;;;;;;;73.10;40.50;;;;;;;;;;5054099;28;20025;-94
2022/11/11 19:49:58;;;;;;;87.75;46.85;;;;;;;;;;5054026;28;20119;-94
2022/11/11 19:52:26;;;;;;;90.10;49.38;;;;;;;;;;5053452;28;20079;-94
2022/11/11 19:54:52;;;;;;;84.93;47.90;;;;;;;;;;5054039;28;20040;-95
2022/11/11 19:57:19;;;;;;;73.95;41.72;;;;;;;;;;5053866;28;20032;-95
2022/11/11 19:59:46;;;;;;;74.95;41.88;;;;;;;;;;5054552;28;20047;-92
2022/11/11 20:02:12;;;;;;;82.53;44.05;;;;;;;;;;5053539;28;20032;-93
2022/11/11 20:04:38;;;;;;;51.38;33.08;;;;;;;;;;5053484;28;20028;-93
2022/11/11 20:07:04;;;;;;;64.28;37.30;;;;;;;;;;5053427;28;20028;-92
2022/11/11 20:09:33;;;;;;;74.45;40.47;;;;;;;;;;5053437;28;20082;-92
2022/11/11 20:11:59;;;;;;;57.72;34.38;;;;;;;;;;5054044;28;20033;-95
2022/11/11 20:14:25;;;;;;;75.80;42.65;;;;;;;;;;5055226;28;20025;-92
2022/11/11 20:16:51;;;;;;;71.72;41.35;;;;;;;;;;5058009;28;20036;-91
2022/11/11 20:19:29;;;;;;;62.03;38.53;;;;;;;;;;5057437;28;20021;-96
2022/11/11 20:21:58;;;;;;;58.80;35.15;;;;;;;;;;5054253;28;20037;-96
2022/11/11 20:24:25;;;;;;;62.28;38.53;;;;;;;;;;5053282;28;20485;-93
2022/11/11 20:26:54;;;;;;;69.07;40.45;;;;;;;;;;5053736;28;20025;-93
2022/11/11 20:29:21;;;;;;;63.67;37.78;;;;;;;;;;5054585;28;20021;-93
2022/11/11 20:31:47;;;;;;;52.85;31.45;;;;;;;;;;5056451;28;20407;-93
2022/11/11 20:34:13;;;;;;;61.00;36.67;;;;;;;;;;5053423;28;20036;-92
2022/11/11 20:36:39;;;;;;;58.75;34.17;;;;;;;;;;5053333;28;20037;-92
2022/11/11 20:39:05;;;;;;;58.30;35.95;;;;;;;;;;5054178;28;20119;-90
2022/11/11 20:41:37;;;;;;;51.85;31.27;;;;;;;;;;5053803;28;20025;-92
2022/11/11 20:44:04;;;;;;;52.83;30.75;;;;;;;;;;5052771;28;20037;-92
2022/11/11 20:46:30;;;;;;;61.53;36.58;;;;;;;;;;5052849;28;20031;-94
2022/11/11 20:48:56;;;;;;;59.08;34.80;;;;;;;;;;5053233;28;20086;-95
2022/11/11 20:51:24;;;;;;;59.47;33.85;;;;;;;;;;5055480;28;20025;-96
2022/11/11 20:54:02;;;;;;;62.45;36.20;;;;;;;;;;5057315;28;20024;-96
2022/11/11 20:57:07;;;;;;;;;;;;;;;;;;;;;
2022/11/11 20:59:37;;;;;;;95.63;53.67;;;;;;;;;;5052746;28;20025;-95
2022/11/11 21:02:23;;;;;;;86.80;49.22;;;;;;;;;;5036938;28;20041;-96
2022/11/11 21:05:05;;;;;;;97.40;54.33;;;;;;;;;;5048125;28;20047;-96
2022/11/11 21:07:41;;;;;;;72.10;42.22;;;;;;;;;;5053448;28;20021;-95
2022/11/11 21:13:47;;;;;;;;;;;;;;;;;;;;;
2022/11/11 21:16:21;;;;;;;88.40;47.33;;;;;;;;;;5000227;28;20486;-95
2022/11/11 21:18:59;;;;;;;71.75;44.20;;;;;;;;;;5054111;28;20079;-96
2022/11/11 21:21:47;;;;;;;84.70;47.17;;;;;;;;;;5038026;28;20119;-96
2022/11/11 21:24:14;;;;;;;81.65;47.63;;;;;;;;;;5057583;28;20041;-95
2022/11/11 21:26:40;;;;;;;70.40;41.70;;;;;;;;;;5057002;28;20450;-94
2022/11/11 21:29:06;;;;;;;82.60;42.63;;;;;;;;;;5057672;28;20116;-95
2022/11/11 21:31:34;;;;;;;68.88;41.05;;;;;;;;;;5058240;28;20025;-96
2022/11/11 21:34:10;;;;;;;96.30;51.65;;;;;;;;;;5058255;28;20028;-95
2022/11/11 21:36:40;;;;;;;81.43;48.35;;;;;;;;;;5059257;28;20465;-96
2022/11/11 21:39:18;;;;;;;66.53;41.35;;;;;;;;;;5059758;28;20025;-96
2022/11/11 21:41:58;;;;;;;;;;;;;;;;;;;;;
2022/11/11 21:44:24;;;;;;;81.10;45.97;;;;;;;;;;5060399;28;20039;-94
2022/11/11 21:46:58;;;;;;;72.72;40.53;;;;;;;;;;5058706;28;20021;-96
2022/11/11 21:49:26;;;;;;;92.28;51.05;;;;;;;;;;5058658;28;20039;-95
2022/11/11 21:51:59;;;;;;;73.10;43.30;;;;;;;;;;5065151;28;20800;-96
2022/11/11 21:54:37;;;;;;;74.45;42.75;;;;;;;;;;5099207;28;20013;-94
2022/11/11 21:57:27;;;;;;;62.97;36.28;;;;;;;;;;5065504;28;20032;-96
2022/11/11 22:00:06;;;;;;;;;;;;;;;;;;;;;
2022/11/11 22:02:39;;;;;;;51.53;31.45;;;;;;;;;;5078173;28;20040;-94
2022/11/11 22:05:09;;;;;;;60.00;35.22;;;;;;;;;;5060594;28;20017;-95
2022/11/11 22:07:35;;;;;;;90.82;47.33;;;;;;;;;;5061710;28;20058;-95
2022/11/11 22:10:05;;;;;;;94.30;53.55;;;;;;;;;;5059787;28;20027;-94
2022/11/11 22:12:31;;;;;;;105.82;54.38;;;;;;;;;;5062015;28;20063;-95
2022/11/11 22:15:00;;;;;;;64.22;38.92;;;;;;;;;;5063862;28;20485;-94
2022/11/11 22:17:28;;;;;;;50.53;31.60;;;;;;;;;;5061116;28;20024;-94
2022/11/11 22:26:11;;;;;;;56.47;33.22;;;;;;;;;;4977735;28;20094;-95
2022/11/11 22:28:37;;;;;;;62.63;37.95;;;;;;;;;;5071838;28;20082;-95
2022/11/11 22:31:48;;;;;;;70.72;41.42;;;;;;;;;;5059895;28;20495;-94
2022/11/11 22:34:14;;;;;;;114.60;60.13;;;;;;;;;;5075299;28;20123;-95
2022/11/11 22:39:56;;;;;;;82.40;44.42;;;;;;;;;;5038529;28;20044;-96
2022/11/11 22:42:28;;;;;;;80.38;45.83;;;;;;;;;;5062559;28;20128;-95
2022/11/11 22:44:55;;;;;;;57.08;35.15;;;;;;;;;;5060742;28;20078;-95
2022/11/11 22:47:39;;;;;;;70.03;42.08;;;;;;;;;;5063740;28;20359;-96
2022/11/11 22:50:08;;;;;;;59.55;36.50;;;;;;;;;;5067044;28;20028;-94
2022/11/11 22:52:35;;;;;;;55.50;31.77;;;;;;;;;;5057444;28;20056;-94
2022/11/11 22:58:07;;;;;;;50.88;30.80;;;;;;;;;;5045718;28;20017;-93
2022/11/11 23:00:59;;;;;;;51.40;29.08;;;;;;;;;;5044961;28;20033;-95
2022/11/11 23:04:04;;;;;;;50.92;30.52;;;;;;;;;;5041130;28;20052;-96
2022/11/11 23:06:31;;;;;;;57.35;34.38;;;;;;;;;;5037715;28;20045;-93
2022/11/11 23:08:58;;;;;;;46.95;27.63;;;;;;;;;;5041522;28;20026;-93
2022/11/11 23:11:28;;;;;;;43.40;26.92;;;;;;;;;;5024696;28;20067;-94
2022/11/11 23:14:14;;;;;;;55.67;32.00;;;;;;;;;;5044767;28;20085;-95
2022/11/11 23:16:40;;;;;;;42.20;26.48;;;;;;;;;;5049427;28;20021;-94
2022/11/11 23:28:29;;;;;;;58.85;34.15;;;;;;;;;;5005557;28;20026;-95
2022/11/11 23:31:08;;;;;;;43.92;26.60;;;;;;;;;;5127628;22;20322;-94
2022/11/11 23:33:35;;;;;;;50.35;30.33;;;;;;;;;;5064593;28;20040;-95
2022/11/11 23:36:02;;;;;;;55.45;32.95;;;;;;;;;;5061749;28;20477;-93
2022/11/11 23:38:29;;;;;;;47.90;29.13;;;;;;;;;;5060297;28;20048;-95
2022/11/11 23:40:55;;;;;;;43.30;25.15;;;;;;;;;;5061526;28;20020;-94
2022/11/11 23:43:42;;;;;;;55.58;31.83;;;;;;;;;;5058857;28;20119;-96
2022/11/11 23:46:17;;;;;;;43.78;27.25;;;;;;;;;;5060039;28;20391;-96
2022/11/11 23:52:14;;;;;;;41.30;25.38;;;;;;;;;;5079029;28;20131;-95
